sensor_id;sensor_type;location;lat;lon;timestamp;pressure;altitude;pressure_sealevel;temperature;humidity
39455;BME280;25155;41.890;23.446;2022-12-18T00:00:13;92445.28;;;7.14;91.30
39455;BME280;25155;41.890;23.446;2022-12-18T00:02:40;92441.88;;;7.14;90.93
39455;BME280;25155;41.890;23.446;2022-12-18T00:05:07;92442.41;;;7.16;90.79
39455;BME280;25155;41.890;23.446;2022-12-18T00:07:34;92452.06;;;7.15;90.70
39455;BME280;25155;41.890;23.446;2022-12-18T00:10:01;92447.88;;;7.14;90.78
39455;BME280;25155;41.890;23.446;2022-12-18T00:12:28;92449.97;;;7.18;90.70
39455;BME280;25155;41.890;23.446;2022-12-18T00:14:57;92458.84;;;7.16;90.63
39455;BME280;25155;41.890;23.446;2022-12-18T00:17:24;92455.34;;;7.06;90.60
39455;BME280;25155;41.890;23.446;2022-12-18T00:19:51;92465.91;;;6.94;90.93
39455;BME280;25155;41.890;23.446;2022-12-18T00:22:17;92469.50;;;6.88;91.30
39455;BME280;25155;41.890;23.446;2022-12-18T00:24:44;92470.00;;;6.85;91.59
39455;BME280;25155;41.890;23.446;2022-12-18T00:27:11;92461.69;;;6.88;91.70
39455;BME280;25155;41.890;23.446;2022-12-18T00:29:38;92454.97;;;6.92;91.90
39455;BME280;25155;41.890;23.446;2022-12-18T00:32:06;92463.84;;;6.96;91.85
39455;BME280;25155;41.890;23.446;2022-12-18T00:34:33;92460.75;;;6.99;91.67
39455;BME280;25155;41.890;23.446;2022-12-18T00:37:00;92461.28;;;7.01;91.21
39455;BME280;25155;41.890;23.446;2022-12-18T00:39:27;92467.84;;;7.04;90.71
39455;BME280;25155;41.890;23.446;2022-12-18T00:41:54;92464.94;;;7.00;91.03
39455;BME280;25155;41.890;23.446;2022-12-18T00:44:38;92465.72;;;7.01;90.52
39455;BME280;25155;41.890;23.446;2022-12-18T00:47:05;92468.56;;;6.99;91.03
39455;BME280;25155;41.890;23.446;2022-12-18T00:49:33;92467.00;;;6.98;91.14
39455;BME280;25155;41.890;23.446;2022-12-18T00:52:00;92470.41;;;6.98;91.15
39455;BME280;25155;41.890;23.446;2022-12-18T00:54:27;92461.00;;;6.97;90.92
39455;BME280;25155;41.890;23.446;2022-12-18T00:56:54;92464.94;;;7.00;91.29
39455;BME280;25155;41.890;23.446;2022-12-18T00:59:21;92473.53;;;7.01;91.25
39455;BME280;25155;41.890;23.446;2022-12-18T01:01:48;92479.00;;;6.99;91.00
39455;BME280;25155;41.890;23.446;2022-12-18T01:04:15;92480.56;;;7.00;91.20
39455;BME280;25155;41.890;23.446;2022-12-18T01:06:43;92478.50;;;7.02;91.30
39455;BME280;25155;41.890;23.446;2022-12-18T01:09:10;92475.91;;;7.02;91.09
39455;BME280;25155;41.890;23.446;2022-12-18T01:11:37;92470.44;;;7.04;90.95
39455;BME280;25155;41.890;23.446;2022-12-18T01:14:04;92478.03;;;7.05;91.10
39455;BME280;25155;41.890;23.446;2022-12-18T01:16:31;92486.38;;;7.07;91.17
39455;BME280;25155;41.890;23.446;2022-12-18T01:18:57;92483.78;;;7.07;91.21
39455;BME280;25155;41.890;23.446;2022-12-18T01:21:24;92483.78;;;7.07;91.01
39455;BME280;25155;41.890;23.446;2022-12-18T01:23:53;92485.31;;;7.03;90.79
39455;BME280;25155;41.890;23.446;2022-12-18T01:26:20;92488.94;;;7.02;91.03
39455;BME280;25155;41.890;23.446;2022-12-18T01:28:47;92489.94;;;7.01;90.97
39455;BME280;25155;41.890;23.446;2022-12-18T01:31:15;92497.78;;;7.01;90.48
39455;BME280;25155;41.890;23.446;2022-12-18T01:33:42;92492.03;;;6.99;90.39
39455;BME280;25155;41.890;23.446;2022-12-18T01:36:14;92494.63;;;6.99;90.17
39455;BME280;25155;41.890;23.446;2022-12-18T01:38:41;92494.59;;;6.94;89.61
39455;BME280;25155;41.890;23.446;2022-12-18T01:41:09;92497.66;;;6.91;89.17
39455;BME280;25155;41.890;23.446;2022-12-18T01:43:47;92495.50;;;6.83;88.86
39455;BME280;25155;41.890;23.446;2022-12-18T01:46:14;92501.44;;;6.78;88.77
39455;BME280;25155;41.890;23.446;2022-12-18T01:48:41;92503.75;;;6.74;88.94
39455;BME280;25155;41.890;23.446;2022-12-18T01:51:09;92503.75;;;6.74;88.75
39455;BME280;25155;41.890;23.446;2022-12-18T01:53:37;92505.81;;;6.72;89.01
39455;BME280;25155;41.890;23.446;2022-12-18T01:56:05;92504.22;;;6.71;89.02
39455;BME280;25155;41.890;23.446;2022-12-18T01:58:37;92501.06;;;6.69;88.92
39455;BME280;25155;41.890;23.446;2022-12-18T02:01:07;92504.72;;;6.68;88.93
39455;BME280;25155;41.890;23.446;2022-12-18T02:03:34;92497.94;;;6.67;89.11
39455;BME280;25155;41.890;23.446;2022-12-18T02:06:03;92500.28;;;6.69;89.04
39455;BME280;25155;41.890;23.446;2022-12-18T02:08:34;92505.25;;;6.70;88.94
39455;BME280;25155;41.890;23.446;2022-12-18T02:11:03;92503.19;;;6.72;88.80
39455;BME280;25155;41.890;23.446;2022-12-18T02:13:34;92509.19;;;6.73;88.93
39455;BME280;25155;41.890;23.446;2022-12-18T02:16:05;92505.31;;;6.75;88.79
39455;BME280;25155;41.890;23.446;2022-12-18T02:18:35;92508.88;;;6.69;88.60
39455;BME280;25155;41.890;23.446;2022-12-18T02:21:07;92509.84;;;6.63;88.43
39455;BME280;25155;41.890;23.446;2022-12-18T02:23:40;92507.75;;;6.60;88.19
39455;BME280;25155;41.890;23.446;2022-12-18T02:26:20;92505.16;;;6.60;88.57
39455;BME280;25155;41.890;23.446;2022-12-18T02:29:00;92512.41;;;6.58;88.35
39455;BME280;25155;41.890;23.446;2022-12-18T02:31:29;92506.16;;;6.59;88.68
39455;BME280;25155;41.890;23.446;2022-12-18T02:33:58;92514.53;;;6.61;89.14
39455;BME280;25155;41.890;23.446;2022-12-18T02:36:26;92516.66;;;6.64;89.25
39455;BME280;25155;41.890;23.446;2022-12-18T02:38:54;92520.03;;;6.65;89.09
39455;BME280;25155;41.890;23.446;2022-12-18T02:41:24;92517.66;;;6.63;89.14
39455;BME280;25155;41.890;23.446;2022-12-18T02:43:53;92505.22;;;6.65;89.10
39455;BME280;25155;41.890;23.446;2022-12-18T02:46:25;92509.38;;;6.66;89.27
39455;BME280;25155;41.890;23.446;2022-12-18T02:48:53;92501.56;;;6.66;89.32
39455;BME280;25155;41.890;23.446;2022-12-18T02:51:25;92516.94;;;6.68;89.42
39455;BME280;25155;41.890;23.446;2022-12-18T02:53:56;92511.44;;;6.64;89.31
39455;BME280;25155;41.890;23.446;2022-12-18T02:56:26;92506.22;;;6.64;89.38
39455;BME280;25155;41.890;23.446;2022-12-18T02:58:57;92514.81;;;6.65;89.47
39455;BME280;25155;41.890;23.446;2022-12-18T03:01:28;92514.56;;;6.66;89.34
39455;BME280;25155;41.890;23.446;2022-12-18T03:04:01;92519.56;;;6.68;89.50
39455;BME280;25155;41.890;23.446;2022-12-18T03:06:29;92522.72;;;6.70;89.21
39455;BME280;25155;41.890;23.446;2022-12-18T03:08:59;92523.97;;;6.67;88.91
39455;BME280;25155;41.890;23.446;2022-12-18T03:11:29;92519.25;;;6.64;88.28
39455;BME280;25155;41.890;23.446;2022-12-18T03:14:16;92525.41;;;6.58;87.82
39455;BME280;25155;41.890;23.446;2022-12-18T03:16:45;92525.13;;;6.54;87.93
39455;BME280;25155;41.890;23.446;2022-12-18T03:19:15;92531.38;;;6.53;87.91
39455;BME280;25155;41.890;23.446;2022-12-18T03:21:45;92525.84;;;6.50;87.61
39455;BME280;25155;41.890;23.446;2022-12-18T03:24:12;92523.75;;;6.47;87.54
39455;BME280;25155;41.890;23.446;2022-12-18T03:26:43;92531.47;;;6.41;87.24
39455;BME280;25155;41.890;23.446;2022-12-18T03:29:12;92531.97;;;6.38;87.25
39455;BME280;25155;41.890;23.446;2022-12-18T03:31:41;92539.19;;;6.36;87.17
39455;BME280;25155;41.890;23.446;2022-12-18T03:34:12;92542.53;;;6.32;87.16
39455;BME280;25155;41.890;23.446;2022-12-18T03:36:40;92542.78;;;6.30;87.54
39455;BME280;25155;41.890;23.446;2022-12-18T03:39:07;92545.38;;;6.30;87.58
39455;BME280;25155;41.890;23.446;2022-12-18T03:41:35;92556.34;;;6.32;87.10
39455;BME280;25155;41.890;23.446;2022-12-18T03:44:10;92556.03;;;6.29;86.74
39455;BME280;25155;41.890;23.446;2022-12-18T03:46:39;92557.84;;;6.28;86.98
39455;BME280;25155;41.890;23.446;2022-12-18T03:49:09;92556.28;;;6.27;87.40
39455;BME280;25155;41.890;23.446;2022-12-18T03:51:39;92559.41;;;6.29;87.40
39455;BME280;25155;41.890;23.446;2022-12-18T03:54:09;92561.47;;;6.27;87.18
39455;BME280;25155;41.890;23.446;2022-12-18T03:56:37;92561.47;;;6.27;86.86
39455;BME280;25155;41.890;23.446;2022-12-18T03:59:05;92555.47;;;6.27;87.06
39455;BME280;25155;41.890;23.446;2022-12-18T04:01:34;92566.69;;;6.27;87.02
39455;BME280;25155;41.890;23.446;2022-12-18T04:04:03;92569.06;;;6.29;87.59
39455;BME280;25155;41.890;23.446;2022-12-18T04:06:31;92577.09;;;6.27;87.32
39455;BME280;25155;41.890;23.446;2022-12-18T04:09:01;92578.34;;;6.24;87.23
39455;BME280;25155;41.890;23.446;2022-12-18T04:11:28;92576.53;;;6.25;87.17
39455;BME280;25155;41.890;23.446;2022-12-18T04:13:55;92579.69;;;6.27;87.23
39455;BME280;25155;41.890;23.446;2022-12-18T04:16:23;92587.28;;;6.29;87.58
39455;BME280;25155;41.890;23.446;2022-12-18T04:18:51;92581.03;;;6.30;87.63
39455;BME280;25155;41.890;23.446;2022-12-18T04:21:18;92579.47;;;6.29;87.58
39455;BME280;25155;41.890;23.446;2022-12-18T04:23:45;92585.44;;;6.29;87.64
39455;BME280;25155;41.890;23.446;2022-12-18T04:26:12;92590.03;;;6.22;86.92
39455;BME280;25155;41.890;23.446;2022-12-18T04:28:39;92589.38;;;6.15;87.07
39455;BME280;25155;41.890;23.446;2022-12-18T04:31:06;92591.91;;;6.10;87.40
39455;BME280;25155;41.890;23.446;2022-12-18T04:33:33;92590.03;;;6.05;87.40
39455;BME280;25155;41.890;23.446;2022-12-18T04:36:01;92586.41;;;6.06;88.00
39455;BME280;25155;41.890;23.446;2022-12-18T04:38:28;92594.75;;;6.08;88.23
39455;BME280;25155;41.890;23.446;2022-12-18T04:40:55;92599.66;;;6.04;87.65
39455;BME280;25155;41.890;23.446;2022-12-18T04:43:22;92597.59;;;6.07;88.18
39455;BME280;25155;41.890;23.446;2022-12-18T04:45:49;92600.50;;;6.10;88.04
39455;BME280;25155;41.890;23.446;2022-12-18T04:48:15;92604.94;;;6.10;88.19
39455;BME280;25155;41.890;23.446;2022-12-18T04:50:42;92605.97;;;6.09;87.70
39455;BME280;25155;41.890;23.446;2022-12-18T04:53:11;92604.94;;;6.10;88.19
39455;BME280;25155;41.890;23.446;2022-12-18T04:55:37;92604.69;;;6.11;88.03
39455;BME280;25155;41.890;23.446;2022-12-18T04:58:04;92603.44;;;6.14;88.18
39455;BME280;25155;41.890;23.446;2022-12-18T05:00:31;92605.00;;;6.15;88.20
39455;BME280;25155;41.890;23.446;2022-12-18T05:02:59;92602.97;;;6.17;88.20
39455;BME280;25155;41.890;23.446;2022-12-18T05:05:27;92611.34;;;6.19;88.17
39455;BME280;25155;41.890;23.446;2022-12-18T05:07:54;92614.47;;;6.21;87.80
39455;BME280;25155;41.890;23.446;2022-12-18T05:10:23;92622.84;;;6.23;87.82
39455;BME280;25155;41.890;23.446;2022-12-18T05:12:51;92613.22;;;6.23;87.71
39455;BME280;25155;41.890;23.446;2022-12-18T05:15:28;92618.09;;;6.20;87.07
39455;BME280;25155;41.890;23.446;2022-12-18T05:17:55;92621.31;;;6.10;86.52
39455;BME280;25155;41.890;23.446;2022-12-18T05:20:22;92624.00;;;5.98;86.74
39455;BME280;25155;41.890;23.446;2022-12-18T05:22:49;92625.81;;;5.98;87.03
39455;BME280;25155;41.890;23.446;2022-12-18T05:25:16;92626.59;;;5.98;87.17
39455;BME280;25155;41.890;23.446;2022-12-18T05:27:45;92631.81;;;5.98;87.23
39455;BME280;25155;41.890;23.446;2022-12-18T05:30:12;92630.94;;;5.93;86.86
39455;BME280;25155;41.890;23.446;2022-12-18T05:32:39;92638.91;;;5.86;86.96
39455;BME280;25155;41.890;23.446;2022-12-18T05:35:07;92631.00;;;5.81;86.97
39455;BME280;25155;41.890;23.446;2022-12-18T05:37:34;92635.41;;;5.80;87.29
39455;BME280;25155;41.890;23.446;2022-12-18T05:40:01;92637.53;;;5.83;87.78
39455;BME280;25155;41.890;23.446;2022-12-18T05:42:28;92639.69;;;5.86;87.63
39455;BME280;25155;41.890;23.446;2022-12-18T05:44:56;92640.00;;;5.90;87.65
39455;BME280;25155;41.890;23.446;2022-12-18T05:47:23;92643.94;;;5.93;88.03
39455;BME280;25155;41.890;23.446;2022-12-18T05:49:50;92649.72;;;5.95;87.94
39455;BME280;25155;41.890;23.446;2022-12-18T05:52:17;92646.88;;;5.96;87.94
39455;BME280;25155;41.890;23.446;2022-12-18T05:54:44;92644.59;;;6.00;87.81
39455;BME280;25155;41.890;23.446;2022-12-18T05:57:11;92651.38;;;6.01;87.78
39455;BME280;25155;41.890;23.446;2022-12-18T05:59:37;92646.19;;;6.01;87.92
39455;BME280;25155;41.890;23.446;2022-12-18T06:02:06;92653.75;;;6.02;87.95
39455;BME280;25155;41.890;23.446;2022-12-18T06:04:33;92648.22;;;5.99;87.59
39455;BME280;25155;41.890;23.446;2022-12-18T06:06:59;92654.13;;;5.94;87.57
39455;BME280;25155;41.890;23.446;2022-12-18T06:09:26;92653.00;;;5.90;87.42
39455;BME280;25155;41.890;23.446;2022-12-18T06:11:53;92660.50;;;5.86;87.45
39455;BME280;25155;41.890;23.446;2022-12-18T06:14:20;92662.00;;;5.82;88.04
39455;BME280;25155;41.890;23.446;2022-12-18T06:16:47;92671.59;;;5.82;88.27
39455;BME280;25155;41.890;23.446;2022-12-18T06:19:15;92667.75;;;5.84;88.46
39455;BME280;25155;41.890;23.446;2022-12-18T06:21:42;92680.06;;;5.89;88.52
39455;BME280;25155;41.890;23.446;2022-12-18T06:24:09;92675.94;;;5.93;88.13
39455;BME280;25155;41.890;23.446;2022-12-18T06:26:36;92685.91;;;5.96;88.04
39455;BME280;25155;41.890;23.446;2022-12-18T06:29:04;92680.47;;;5.98;88.18
39455;BME280;25155;41.890;23.446;2022-12-18T06:31:31;92687.03;;;6.00;88.27
39455;BME280;25155;41.890;23.446;2022-12-18T06:33:57;92690.19;;;6.02;87.96
39455;BME280;25155;41.890;23.446;2022-12-18T06:36:26;92691.72;;;6.03;88.03
39455;BME280;25155;41.890;23.446;2022-12-18T06:38:52;92695.94;;;6.04;87.76
39455;BME280;25155;41.890;23.446;2022-12-18T06:41:20;92705.31;;;6.05;88.05
39455;BME280;25155;41.890;23.446;2022-12-18T06:43:47;92704.06;;;6.08;87.88
39455;BME280;25155;41.890;23.446;2022-12-18T06:46:14;92702.25;;;6.09;88.13
39455;BME280;25155;41.890;23.446;2022-12-18T06:48:41;92704.59;;;6.10;88.07
39455;BME280;25155;41.890;23.446;2022-12-18T06:51:08;92701.75;;;6.12;87.88
39455;BME280;25155;41.890;23.446;2022-12-18T06:53:36;92705.19;;;6.12;87.70
39455;BME280;25155;41.890;23.446;2022-12-18T06:56:04;92707.53;;;6.14;88.05
39455;BME280;25155;41.890;23.446;2022-12-18T06:58:32;92716.13;;;6.14;87.86
39455;BME280;25155;41.890;23.446;2022-12-18T07:00:59;92718.50;;;6.16;87.91
39455;BME280;25155;41.890;23.446;2022-12-18T07:03:27;92722.94;;;6.15;87.92
39455;BME280;25155;41.890;23.446;2022-12-18T07:05:54;92713.31;;;6.16;87.98
39455;BME280;25155;41.890;23.446;2022-12-18T07:08:21;92720.88;;;6.17;87.90
39455;BME280;25155;41.890;23.446;2022-12-18T07:11:05;92724.81;;;6.20;87.97
39455;BME280;25155;41.890;23.446;2022-12-18T07:13:32;92730.59;;;6.22;87.97
39455;BME280;25155;41.890;23.446;2022-12-18T07:16:08;92738.16;;;6.23;88.00
39455;BME280;25155;41.890;23.446;2022-12-18T07:18:35;92742.56;;;6.23;87.76
39455;BME280;25155;41.890;23.446;2022-12-18T07:21:02;92741.00;;;6.22;87.80
39455;BME280;25155;41.890;23.446;2022-12-18T07:23:29;92735.22;;;6.20;87.54
39455;BME280;25155;41.890;23.446;2022-12-18T07:26:00;92739.66;;;6.19;87.80
39455;BME280;25155;41.890;23.446;2022-12-18T07:28:28;92740.91;;;6.17;87.30
39455;BME280;25155;41.890;23.446;2022-12-18T07:30:55;92749.19;;;6.14;87.33
39455;BME280;25155;41.890;23.446;2022-12-18T07:33:22;92749.41;;;6.12;86.89
39455;BME280;25155;41.890;23.446;2022-12-18T07:35:52;92749.34;;;6.07;86.72
39455;BME280;25155;41.890;23.446;2022-12-18T07:38:20;92756.56;;;6.05;86.64
39455;BME280;25155;41.890;23.446;2022-12-18T07:40:47;92760.44;;;6.02;86.66
39455;BME280;25155;41.890;23.446;2022-12-18T07:43:14;92774.13;;;5.98;86.27
39455;BME280;25155;41.890;23.446;2022-12-18T07:45:43;92768.38;;;5.96;86.18
39455;BME280;25155;41.890;23.446;2022-12-18T07:48:10;92768.59;;;5.94;86.54
39455;BME280;25155;41.890;23.446;2022-12-18T07:50:37;92776.19;;;5.96;86.66
39455;BME280;25155;41.890;23.446;2022-12-18T07:53:04;92771.53;;;5.98;86.71
39455;BME280;25155;41.890;23.446;2022-12-18T07:55:31;92780.94;;;5.99;86.67
39455;BME280;25155;41.890;23.446;2022-12-18T07:58:00;92784.09;;;6.01;86.60
39455;BME280;25155;41.890;23.446;2022-12-18T08:00:27;92784.09;;;6.01;86.54
39455;BME280;25155;41.890;23.446;2022-12-18T08:02:55;92795.81;;;6.03;86.95
39455;BME280;25155;41.890;23.446;2022-12-18T08:05:22;92791.44;;;6.04;86.48
39455;BME280;25155;41.890;23.446;2022-12-18T08:07:49;92788.28;;;6.02;86.73
39455;BME280;25155;41.890;23.446;2022-12-18T08:10:16;92798.69;;;6.02;86.43
39455;BME280;25155;41.890;23.446;2022-12-18T08:12:43;92797.88;;;6.01;86.86
39455;BME280;25155;41.890;23.446;2022-12-18T08:15:10;92796.41;;;6.05;86.89
39455;BME280;25155;41.890;23.446;2022-12-18T08:17:37;92794.25;;;6.02;86.24
39455;BME280;25155;41.890;23.446;2022-12-18T08:20:06;92792.81;;;5.95;86.61
39455;BME280;25155;41.890;23.446;2022-12-18T08:22:33;92799.72;;;5.89;86.72
39455;BME280;25155;41.890;23.446;2022-12-18T08:25:04;92793.84;;;5.82;86.98
39455;BME280;25155;41.890;23.446;2022-12-18T08:27:32;92796.22;;;5.83;87.41
39455;BME280;25155;41.890;23.446;2022-12-18T08:29:59;92801.53;;;5.89;87.25
39455;BME280;25155;41.890;23.446;2022-12-18T08:32:26;92798.22;;;5.93;87.30
39455;BME280;25155;41.890;23.446;2022-12-18T08:34:54;92804.81;;;5.96;87.32
39455;BME280;25155;41.890;23.446;2022-12-18T08:37:22;92809.78;;;5.97;87.57
39455;BME280;25155;41.890;23.446;2022-12-18T08:39:49;92804.66;;;6.02;87.14
39455;BME280;25155;41.890;23.446;2022-12-18T08:42:16;92802.16;;;6.08;87.43
39455;BME280;25155;41.890;23.446;2022-12-18T08:45:00;92801.78;;;6.16;87.55
39455;BME280;25155;41.890;23.446;2022-12-18T08:47:27;92805.03;;;6.23;87.69
39455;BME280;25155;41.890;23.446;2022-12-18T08:49:54;92801.50;;;6.29;88.15
39455;BME280;25155;41.890;23.446;2022-12-18T08:52:22;92807.13;;;6.38;88.17
39455;BME280;25155;41.890;23.446;2022-12-18T08:54:49;92804.38;;;6.45;88.18
39455;BME280;25155;41.890;23.446;2022-12-18T08:57:16;92802.09;;;6.48;88.02
39455;BME280;25155;41.890;23.446;2022-12-18T08:59:43;92800.84;;;6.51;87.25
39455;BME280;25155;41.890;23.446;2022-12-18T09:02:10;92800.84;;;6.51;87.09
39455;BME280;25155;41.890;23.446;2022-12-18T09:04:37;92797.69;;;6.49;86.57
39455;BME280;25155;41.890;23.446;2022-12-18T09:07:05;92798.16;;;6.46;86.46
39455;BME280;25155;41.890;23.446;2022-12-18T09:09:33;92800.28;;;6.49;87.15
39455;BME280;25155;41.890;23.446;2022-12-18T09:12:00;92799.50;;;6.48;86.87
39455;BME280;25155;41.890;23.446;2022-12-18T09:14:27;92794.28;;;6.48;87.43
39455;BME280;25155;41.890;23.446;2022-12-18T09:16:53;92799.91;;;6.57;87.48
39455;BME280;25155;41.890;23.446;2022-12-18T09:19:20;92797.72;;;6.66;87.30
39455;BME280;25155;41.890;23.446;2022-12-18T09:21:47;92801.09;;;6.66;86.77
39455;BME280;25155;41.890;23.446;2022-12-18T09:24:14;92795.66;;;6.68;86.72
39455;BME280;25155;41.890;23.446;2022-12-18T09:26:43;92798.25;;;6.68;86.75
39455;BME280;25155;41.890;23.446;2022-12-18T09:29:10;92799.69;;;6.75;86.95
39455;BME280;25155;41.890;23.446;2022-12-18T09:31:37;92796.84;;;6.77;86.39
39455;BME280;25155;41.890;23.446;2022-12-18T09:34:06;92794.56;;;6.81;86.68
39455;BME280;25155;41.890;23.446;2022-12-18T09:36:32;92792.34;;;6.89;87.25
39455;BME280;25155;41.890;23.446;2022-12-18T09:38:59;92794.78;;;6.96;87.01
39455;BME280;25155;41.890;23.446;2022-12-18T09:41:32;92796.63;;;6.95;86.87
39455;BME280;25155;41.890;23.446;2022-12-18T09:44:04;92795.03;;;6.94;86.19
39455;BME280;25155;41.890;23.446;2022-12-18T09:46:36;92794.78;;;6.96;86.15
39455;BME280;25155;41.890;23.446;2022-12-18T09:49:07;92798.75;;;6.98;86.26
39455;BME280;25155;41.890;23.446;2022-12-18T09:51:39;92800.97;;;6.90;83.89
39455;BME280;25155;41.890;23.446;2022-12-18T09:54:07;92794.41;;;6.70;83.71
39455;BME280;25155;41.890;23.446;2022-12-18T09:56:40;92794.09;;;6.67;85.46
39455;BME280;25155;41.890;23.446;2022-12-18T09:59:14;92794.09;;;6.67;85.02
39455;BME280;25155;41.890;23.446;2022-12-18T10:01:44;92795.19;;;6.71;84.75
39455;BME280;25155;41.890;23.446;2022-12-18T10:04:11;92785.06;;;6.74;84.93
39455;BME280;25155;41.890;23.446;2022-12-18T10:06:39;92788.34;;;6.82;85.05
39455;BME280;25155;41.890;23.446;2022-12-18T10:09:11;92789.44;;;6.86;84.26
39455;BME280;25155;41.890;23.446;2022-12-18T10:11:43;92782.81;;;6.95;85.08
39455;BME280;25155;41.890;23.446;2022-12-18T10:14:17;92791.25;;;7.02;84.65
39455;BME280;25155;41.890;23.446;2022-12-18T10:16:50;92780.91;;;7.07;83.95
39455;BME280;25155;41.890;23.446;2022-12-18T10:19:29;92778.94;;;7.14;84.36
39455;BME280;25155;41.890;23.446;2022-12-18T10:21:59;92780.88;;;7.24;84.47
39455;BME280;25155;41.890;23.446;2022-12-18T10:24:30;92780.69;;;7.31;83.43
39455;BME280;25155;41.890;23.446;2022-12-18T10:27:04;92773.69;;;7.31;83.01
39455;BME280;25155;41.890;23.446;2022-12-18T10:29:37;92772.19;;;7.36;83.18
39455;BME280;25155;41.890;23.446;2022-12-18T10:32:04;92771.00;;;7.43;83.66
39455;BME280;25155;41.890;23.446;2022-12-18T10:34:31;92774.16;;;7.45;82.40
39455;BME280;25155;41.890;23.446;2022-12-18T10:36:59;92778.13;;;7.48;82.70
39455;BME280;25155;41.890;23.446;2022-12-18T10:39:28;92777.94;;;7.55;82.99
39455;BME280;25155;41.890;23.446;2022-12-18T10:41:59;92776.88;;;7.56;82.05
39455;BME280;25155;41.890;23.446;2022-12-18T10:44:37;92778.47;;;7.57;81.90
39455;BME280;25155;41.890;23.446;2022-12-18T10:47:04;92777.53;;;7.63;82.25
39455;BME280;25155;41.890;23.446;2022-12-18T10:49:32;92778.31;;;7.63;81.59
39455;BME280;25155;41.890;23.446;2022-12-18T10:52:04;92774.34;;;7.61;80.82
39455;BME280;25155;41.890;23.446;2022-12-18T10:54:31;92780.59;;;7.60;80.55
39455;BME280;25155;41.890;23.446;2022-12-18T10:57:13;92784.00;;;7.60;80.31
39455;BME280;25155;41.890;23.446;2022-12-18T10:59:50;92784.41;;;7.52;79.75
39455;BME280;25155;41.890;23.446;2022-12-18T11:02:24;92779.38;;;7.45;79.89
39455;BME280;25155;41.890;23.446;2022-12-18T11:04:52;92774.16;;;7.45;80.29
39455;BME280;25155;41.890;23.446;2022-12-18T11:07:19;92773.69;;;7.48;80.39
39455;BME280;25155;41.890;23.446;2022-12-18T11:09:46;92770.03;;;7.49;80.16
39455;BME280;25155;41.890;23.446;2022-12-18T11:12:25;92770.66;;;7.57;80.50
39455;BME280;25155;41.890;23.446;2022-12-18T11:14:55;92762.09;;;7.61;80.44
39455;BME280;25155;41.890;23.446;2022-12-18T11:17:25;92771.25;;;7.64;80.24
39455;BME280;25155;41.890;23.446;2022-12-18T11:19:55;92769.22;;;7.66;79.85
39455;BME280;25155;41.890;23.446;2022-12-18T11:22:23;92769.50;;;7.69;80.47
39455;BME280;25155;41.890;23.446;2022-12-18T11:24:52;92768.78;;;7.74;80.55
39455;BME280;25155;41.890;23.446;2022-12-18T11:27:20;92763.63;;;7.79;80.87
39455;BME280;25155;41.890;23.446;2022-12-18T11:29:47;92756.41;;;7.86;80.83
39455;BME280;25155;41.890;23.446;2022-12-18T11:32:31;92760.59;;;7.87;80.47
39455;BME280;25155;41.890;23.446;2022-12-18T11:37:46;92746.38;;;7.78;79.29
39455;BME280;25155;41.890;23.446;2022-12-18T11:40:16;92758.41;;;7.79;79.45
39455;BME280;25155;41.890;23.446;2022-12-18T11:42:46;92754.22;;;7.78;78.75
39455;BME280;25155;41.890;23.446;2022-12-18T11:45:24;92759.31;;;7.68;77.87
39455;BME280;25155;41.890;23.446;2022-12-18T11:47:54;92760.53;;;7.60;78.85
39455;BME280;25155;41.890;23.446;2022-12-18T11:50:23;92757.47;;;7.46;78.87
39455;BME280;25155;41.890;23.446;2022-12-18T11:52:50;92757.97;;;7.43;79.01
39455;BME280;25155;41.890;23.446;2022-12-18T11:55:19;92756.84;;;7.39;79.40
39455;BME280;25155;41.890;23.446;2022-12-18T11:57:52;92759.22;;;7.41;79.74
39455;BME280;25155;41.890;23.446;2022-12-18T12:00:21;92767.22;;;7.34;79.51
39455;BME280;25155;41.890;23.446;2022-12-18T12:03:00;92769.28;;;7.32;79.45
39455;BME280;25155;41.890;23.446;2022-12-18T12:05:37;92770.69;;;7.23;79.10
39455;BME280;25155;41.890;23.446;2022-12-18T12:08:09;92770.06;;;7.15;79.72
39455;BME280;25155;41.890;23.446;2022-12-18T12:10:45;92760.50;;;7.04;79.79
39455;BME280;25155;41.890;23.446;2022-12-18T12:13:19;92771.34;;;6.96;79.75
39455;BME280;25155;41.890;23.446;2022-12-18T12:15:50;92769.13;;;6.88;80.36
39455;BME280;25155;41.890;23.446;2022-12-18T12:18:23;92757.06;;;6.82;79.81
39455;BME280;25155;41.890;23.446;2022-12-18T12:20:53;92757.31;;;6.80;80.24
39455;BME280;25155;41.890;23.446;2022-12-18T12:23:26;92755.25;;;6.82;80.77
39455;BME280;25155;41.890;23.446;2022-12-18T12:25:57;92756.03;;;6.83;80.05
39455;BME280;25155;41.890;23.446;2022-12-18T12:28:28;92759.25;;;6.73;79.44
39455;BME280;25155;41.890;23.446;2022-12-18T12:31:01;92764.09;;;6.64;80.15
39455;BME280;25155;41.890;23.446;2022-12-18T12:33:33;92760.28;;;6.55;80.21
39455;BME280;25155;41.890;23.446;2022-12-18T12:36:04;92758.25;;;6.57;80.42
39455;BME280;25155;41.890;23.446;2022-12-18T12:38:34;92760.84;;;6.57;80.97
39455;BME280;25155;41.890;23.446;2022-12-18T12:41:04;92756.50;;;6.46;79.49
39455;BME280;25155;41.890;23.446;2022-12-18T12:43:51;92766.38;;;6.44;80.80
39455;BME280;25155;41.890;23.446;2022-12-18T12:46:19;92766.53;;;6.54;80.89
39455;BME280;25155;41.890;23.446;2022-12-18T12:48:49;92767.78;;;6.51;80.80
39455;BME280;25155;41.890;23.446;2022-12-18T12:51:17;92765.63;;;6.48;80.44
39455;BME280;25155;41.890;23.446;2022-12-18T12:53:46;92770.59;;;6.50;81.14
39455;BME280;25155;41.890;23.446;2022-12-18T12:56:14;92772.50;;;6.54;81.26
39455;BME280;25155;41.890;23.446;2022-12-18T12:58:45;92770.22;;;6.58;81.14
39455;BME280;25155;41.890;23.446;2022-12-18T13:01:16;92773.06;;;6.56;80.62
39455;BME280;25155;41.890;23.446;2022-12-18T13:03:53;92778.03;;;6.58;80.78
39455;BME280;25155;41.890;23.446;2022-12-18T13:06:25;92788.69;;;6.56;80.63
39455;BME280;25155;41.890;23.446;2022-12-18T13:08:56;92793.66;;;6.58;80.18
39455;BME280;25155;41.890;23.446;2022-12-18T13:11:31;92792.41;;;6.60;80.06